Time;durP1;ratioP1;P1;durP2;ratioP2;P2;SDS_P1;SDS_P2;PMS_P1;PMS_P2;Temp;Humidity;BMP_temperature;BMP_pressure;BME280_temperature;BME280_humidity;BME280_pressure;Samples;Min_cycle;Max_cycle;Signal;HPM_P1;HPM_P2
2022/01/05 00:00:13;;;;;;;;;;;13.70;63.90;;;;;;5072600;28;19951;-72
2022/01/05 00:02:39;;;;;;;;;;;13.70;63.90;;;;;;5073162;28;19904;-72
2022/01/05 00:05:05;;;;;;;;;;;13.60;63.80;;;;;;5073040;28;19905;-72
2022/01/05 00:07:31;;;;;;;;;;;13.60;63.90;;;;;;5073048;28;20290;-72
2022/01/05 00:09:57;;;;;;;;;;;13.60;63.80;;;;;;5054633;28;19912;-72
2022/01/05 00:12:22;;;;;;;;;;;13.60;63.70;;;;;;5072753;28;19958;-72
2022/01/05 00:14:48;;;;;;;;;;;13.60;63.80;;;;;;5073003;28;19920;-72
2022/01/05 00:17:13;;;;;;;;;;;13.60;63.80;;;;;;5072564;28;19956;-73
2022/01/05 00:19:39;;;;;;;;;;;13.60;63.80;;;;;;5072652;28;19908;-72
2022/01/05 00:22:05;;;;;;;;;;;13.60;63.80;;;;;;5072903;28;19911;-72
2022/01/05 00:24:31;;;;;;;;;;;13.60;63.90;;;;;;5072654;28;20244;-72
2022/01/05 00:26:56;;;;;;;;;;;13.60;63.90;;;;;;5072499;28;19974;-72
2022/01/05 00:29:22;;;;;;;;;;;13.60;64.20;;;;;;5073184;28;20329;-72
2022/01/05 00:31:47;;;;;;;;;;;13.60;63.80;;;;;;5070215;28;19921;-72
2022/01/05 00:34:13;;;;;;;;;;;13.60;63.70;;;;;;5054810;28;19905;-72
2022/01/05 00:36:39;;;;;;;;;;;13.60;63.70;;;;;;5072682;28;19908;-72
2022/01/05 00:39:04;;;;;;;;;;;13.60;63.60;;;;;;5073246;28;19908;-72
2022/01/05 00:41:30;;;;;;;;;;;13.60;63.70;;;;;;5072705;28;19904;-72
2022/01/05 00:43:56;;;;;;;;;;;13.50;63.50;;;;;;5072077;28;19979;-72
2022/01/05 00:46:21;;;;;;;;;;;13.60;63.60;;;;;;5072574;28;19911;-73
2022/01/05 00:48:47;;;;;;;;;;;13.50;63.50;;;;;;5072722;28;19916;-72
2022/01/05 00:51:15;;;;;;;;;;;13.50;63.40;;;;;;5072663;28;19950;-72
2022/01/05 00:53:41;;;;;;;;;;;13.50;63.50;;;;;;5072329;28;19905;-73
2022/01/05 00:56:06;;;;;;;;;;;13.50;63.50;;;;;;5072373;28;19915;-73
2022/01/05 00:58:32;;;;;;;;;;;13.50;63.60;;;;;;5072387;28;20287;-73
2022/01/05 01:00:58;;;;;;;;;;;13.50;63.50;;;;;;5072489;28;19904;-72
2022/01/05 01:03:23;;;;;;;;;;;13.50;63.50;;;;;;5054817;28;19905;-72
2022/01/05 01:05:49;;;;;;;;;;;13.50;63.60;;;;;;5075994;28;20378;-72
2022/01/05 01:08:14;;;;;;;;;;;13.50;63.50;;;;;;5091819;28;19911;-71
2022/01/05 01:10:40;;;;;;;;;;;13.50;63.50;;;;;;5075835;28;20362;-72
2022/01/05 01:13:06;;;;;;;;;;;13.50;63.30;;;;;;5076105;28;19908;-72
2022/01/05 01:15:31;;;;;;;;;;;13.50;63.30;;;;;;5076277;28;19911;-72
2022/01/05 01:17:57;;;;;;;;;;;13.50;63.30;;;;;;5057460;28;19924;-72
2022/01/05 01:20:23;;;;;;;;;;;13.40;63.20;;;;;;5075677;28;19908;-72
2022/01/05 01:22:49;;;;;;;;;;;13.40;63.20;;;;;;5057614;28;20348;-71
2022/01/05 01:25:15;;;;;;;;;;;13.40;63.00;;;;;;5075855;28;19947;-72
2022/01/05 01:27:42;;;;;;;;;;;13.40;63.00;;;;;;5075535;28;20275;-72
2022/01/05 01:30:09;;;;;;;;;;;13.40;63.00;;;;;;5091335;28;19905;-72
2022/01/05 01:32:35;;;;;;;;;;;13.40;62.80;;;;;;5057154;28;19908;-72
2022/01/05 01:35:02;;;;;;;;;;;13.30;62.70;;;;;;5075308;28;20003;-72
2022/01/05 01:37:27;;;;;;;;;;;13.40;62.90;;;;;;5075413;28;19916;-72
2022/01/05 01:39:53;;;;;;;;;;;13.40;62.80;;;;;;5075969;28;19991;-72
2022/01/05 01:42:18;;;;;;;;;;;13.30;62.80;;;;;;5075623;28;20341;-72
2022/01/05 01:44:44;;;;;;;;;;;13.30;62.80;;;;;;5075090;28;19965;-71
2022/01/05 01:47:09;;;;;;;;;;;13.30;62.80;;;;;;5075181;28;20360;-72
2022/01/05 01:49:35;;;;;;;;;;;13.30;62.80;;;;;;5057473;28;20332;-72
2022/01/05 01:52:01;;;;;;;;;;;13.30;62.70;;;;;;5075203;28;20031;-71
2022/01/05 01:54:28;;;;;;;;;;;13.30;62.70;;;;;;5075236;28;20284;-72
2022/01/05 01:56:54;;;;;;;;;;;13.30;62.70;;;;;;5056430;28;20011;-70
2022/01/05 01:59:20;;;;;;;;;;;13.20;62.70;;;;;;5075553;28;19912;-70
2022/01/05 02:01:46;;;;;;;;;;;13.30;62.60;;;;;;5075645;28;19927;-70
2022/01/05 02:04:12;;;;;;;;;;;13.20;62.30;;;;;;5075510;28;19909;-70
2022/01/05 02:06:37;;;;;;;;;;;13.20;62.20;;;;;;5056763;28;19912;-70
2022/01/05 02:09:03;;;;;;;;;;;13.20;62.20;;;;;;5074809;28;19905;-69
2022/01/05 02:11:30;;;;;;;;;;;13.10;62.10;;;;;;5074989;28;20011;-70
2022/01/05 02:13:56;;;;;;;;;;;13.10;62.10;;;;;;5057074;28;19912;-70
2022/01/05 02:16:29;;;;;;;;;;;13.10;61.90;;;;;;5056438;28;20352;-71
2022/01/05 02:18:58;;;;;;;;;;;13.10;61.80;;;;;;5056891;28;19916;-69
2022/01/05 02:21:24;;;;;;;;;;;13.00;61.60;;;;;;5074802;28;19904;-69
2022/01/05 02:23:50;;;;;;;;;;;13.10;61.60;;;;;;5074579;28;19915;-71
2022/01/05 02:26:16;;;;;;;;;;;13.00;61.50;;;;;;5074996;28;19908;-71
2022/01/05 02:28:42;;;;;;;;;;;13.00;61.40;;;;;;5057005;28;19915;-72
2022/01/05 02:31:08;;;;;;;;;;;12.90;62.10;;;;;;5090909;28;19917;-71
2022/01/05 02:33:33;;;;;;;;;;;12.90;61.30;;;;;;5075315;28;19962;-71
2022/01/05 02:35:59;;;;;;;;;;;12.90;61.50;;;;;;5074494;28;19913;-71
2022/01/05 02:38:25;;;;;;;;;;;12.90;61.60;;;;;;5057119;28;20257;-71
2022/01/05 02:40:51;;;;;;;;;;;12.90;61.60;;;;;;5075176;28;19908;-71
2022/01/05 02:43:17;;;;;;;;;;;12.80;61.60;;;;;;5075054;28;20291;-72
2022/01/05 02:45:42;;;;;;;;;;;12.80;61.30;;;;;;5074772;28;19909;-71
2022/01/05 02:48:08;;;;;;;;;;;12.80;61.10;;;;;;5074936;28;19916;-71
2022/01/05 02:50:34;;;;;;;;;;;12.70;61.00;;;;;;5074952;28;20014;-71
2022/01/05 02:53:00;;;;;;;;;;;12.70;61.00;;;;;;5074500;28;20394;-71
2022/01/05 02:55:26;;;;;;;;;;;12.70;61.00;;;;;;5074773;28;19909;-71
2022/01/05 02:57:51;;;;;;;;;;;12.70;61.00;;;;;;5074562;28;20348;-71
2022/01/05 03:00:17;;;;;;;;;;;12.60;61.00;;;;;;5056658;28;19948;-72
2022/01/05 03:02:43;;;;;;;;;;;12.60;60.90;;;;;;5074455;28;20263;-71
2022/01/05 03:05:09;;;;;;;;;;;12.60;60.90;;;;;;5074630;28;19966;-71
2022/01/05 03:07:39;;;;;;;;;;;12.50;60.90;;;;;;5074298;28;20284;-71
2022/01/05 03:10:05;;;;;;;;;;;12.60;60.90;;;;;;5056561;28;19908;-72
2022/01/05 03:12:31;;;;;;;;;;;12.50;60.80;;;;;;5056450;28;19908;-71
2022/01/05 03:14:56;;;;;;;;;;;12.50;60.70;;;;;;5085998;28;19969;-71
2022/01/05 03:17:22;;;;;;;;;;;12.50;60.70;;;;;;5076108;28;19924;-71
2022/01/05 03:19:48;;;;;;;;;;;12.50;60.60;;;;;;5076510;28;19908;-71
2022/01/05 03:22:13;;;;;;;;;;;12.40;60.60;;;;;;5076372;28;19912;-71
2022/01/05 03:24:39;;;;;;;;;;;12.40;60.50;;;;;;5090681;28;19928;-69
2022/01/05 03:27:05;;;;;;;;;;;12.40;60.50;;;;;;5071087;28;19908;-72
2022/01/05 03:29:30;;;;;;;;;;;12.30;60.50;;;;;;5072394;28;19912;-71
2022/01/05 03:31:56;;;;;;;;;;;12.30;60.50;;;;;;5073012;28;19958;-71
2022/01/05 03:34:22;;;;;;;;;;;12.30;60.50;;;;;;5072764;28;19916;-72
2022/01/05 03:36:48;;;;;;;;;;;12.30;60.50;;;;;;5073273;28;19908;-71
2022/01/05 03:39:13;;;;;;;;;;;12.20;60.50;;;;;;5072956;28;20260;-71
2022/01/05 03:41:39;;;;;;;;;;;12.20;60.40;;;;;;5073151;28;19912;-71
2022/01/05 03:44:05;;;;;;;;;;;12.20;60.50;;;;;;5073167;28;19905;-72
2022/01/05 03:46:31;;;;;;;;;;;12.10;60.50;;;;;;5073121;28;19904;-71
2022/01/05 03:48:57;;;;;;;;;;;12.10;60.60;;;;;;5073020;28;20130;-71
2022/01/05 03:51:22;;;;;;;;;;;12.10;60.70;;;;;;5072724;28;19909;-71
2022/01/05 03:53:48;;;;;;;;;;;12.10;60.70;;;;;;5072615;28;19951;-71
2022/01/05 03:56:13;;;;;;;;;;;12.00;60.60;;;;;;5072618;28;19904;-71
2022/01/05 03:58:39;;;;;;;;;;;12.00;60.80;;;;;;5072852;28;19913;-71
2022/01/05 04:01:04;;;;;;;;;;;12.00;61.00;;;;;;5072631;28;19955;-72
2022/01/05 04:03:30;;;;;;;;;;;12.00;61.00;;;;;;5072299;28;19905;-71
2022/01/05 04:05:56;;;;;;;;;;;11.90;60.90;;;;;;5073016;28;19967;-72
2022/01/05 04:08:21;;;;;;;;;;;11.90;61.00;;;;;;5072729;28;19905;-71
2022/01/05 04:10:47;;;;;;;;;;;11.90;61.00;;;;;;5072807;28;19919;-71
2022/01/05 04:13:14;;;;;;;;;;;11.80;61.00;;;;;;5072761;28;19904;-71
2022/01/05 04:15:40;;;;;;;;;;;11.80;61.10;;;;;;5072396;28;19904;-72
2022/01/05 04:18:06;;;;;;;;;;;11.80;61.20;;;;;;5071631;28;20320;-71
2022/01/05 04:20:31;;;;;;;;;;;11.80;61.20;;;;;;5072741;28;19905;-72
2022/01/05 04:22:57;;;;;;;;;;;11.70;61.10;;;;;;5072688;28;19908;-71
2022/01/05 04:25:23;;;;;;;;;;;11.70;61.20;;;;;;5067765;28;20296;-71
2022/01/05 04:27:48;;;;;;;;;;;11.70;61.10;;;;;;5052955;28;19908;-71
2022/01/05 04:30:14;;;;;;;;;;;11.70;61.20;;;;;;5070203;28;20319;-71
2022/01/05 04:32:39;;;;;;;;;;;11.60;61.10;;;;;;5072835;28;19908;-71
2022/01/05 04:35:06;;;;;;;;;;;11.60;61.10;;;;;;5072434;28;19905;-71
2022/01/05 04:37:32;;;;;;;;;;;11.60;61.10;;;;;;5072412;28;19912;-72
2022/01/05 04:39:58;;;;;;;;;;;11.60;61.10;;;;;;5075402;28;19959;-71
2022/01/05 04:42:25;;;;;;;;;;;11.60;61.00;;;;;;5076071;28;19939;-71
2022/01/05 04:44:51;;;;;;;;;;;11.60;61.00;;;;;;5076206;28;19919;-72
2022/01/05 04:47:16;;;;;;;;;;;11.60;61.10;;;;;;5091996;28;20003;-71
2022/01/05 04:49:42;;;;;;;;;;;11.50;61.00;;;;;;5091954;28;19904;-71
2022/01/05 04:52:07;;;;;;;;;;;11.60;61.20;;;;;;5076218;28;19908;-71
2022/01/05 04:54:33;;;;;;;;;;;11.50;61.10;;;;;;5075787;28;20406;-71
2022/01/05 04:56:59;;;;;;;;;;;11.50;61.00;;;;;;5091743;28;20287;-71
2022/01/05 04:59:24;;;;;;;;;;;11.50;60.90;;;;;;5091711;28;19909;-71
2022/01/05 05:01:50;;;;;;;;;;;11.50;60.80;;;;;;5076002;28;19904;-71
2022/01/05 05:04:15;;;;;;;;;;;11.50;60.90;;;;;;5075785;28;19916;-71
2022/01/05 05:06:41;;;;;;;;;;;11.50;60.90;;;;;;5090479;28;19908;-71
2022/01/05 05:09:06;;;;;;;;;;;11.50;60.90;;;;;;5075762;28;19916;-71
2022/01/05 05:11:32;;;;;;;;;;;11.50;60.70;;;;;;5075764;28;20351;-71
2022/01/05 05:13:58;;;;;;;;;;;11.50;60.50;;;;;;5075689;28;20004;-71
2022/01/05 05:16:23;;;;;;;;;;;11.40;60.40;;;;;;5090709;28;19951;-71
2022/01/05 05:18:49;;;;;;;;;;;11.30;60.50;;;;;;5057193;28;19924;-73
2022/01/05 05:21:15;;;;;;;;;;;11.30;60.80;;;;;;5075621;28;19904;-71
2022/01/05 05:23:40;;;;;;;;;;;11.20;61.00;;;;;;5075874;28;19904;-71
2022/01/05 05:26:06;;;;;;;;;;;11.10;61.30;;;;;;5076383;28;20324;-71
2022/01/05 05:28:32;;;;;;;;;;;11.00;61.50;;;;;;5075673;28;19904;-71
2022/01/05 05:30:57;;;;;;;;;;;11.00;61.60;;;;;;5075663;28;19915;-71
2022/01/05 05:33:23;;;;;;;;;;;10.90;61.70;;;;;;5076393;28;19904;-71
2022/01/05 05:35:48;;;;;;;;;;;10.80;61.80;;;;;;5058380;28;19912;-71
2022/01/05 05:38:15;;;;;;;;;;;10.80;62.00;;;;;;5091061;28;20445;-71
2022/01/05 05:40:42;;;;;;;;;;;10.70;62.10;;;;;;5091616;28;19905;-71
2022/01/05 05:43:07;;;;;;;;;;;10.70;62.30;;;;;;5074977;28;20360;-71
2022/01/05 05:45:33;;;;;;;;;;;10.60;62.50;;;;;;5076003;28;20011;-71
2022/01/05 05:47:58;;;;;;;;;;;10.60;62.90;;;;;;5075908;28;19904;-71
2022/01/05 05:50:24;;;;;;;;;;;10.60;63.10;;;;;;5075418;28;19905;-72
2022/01/05 05:52:50;;;;;;;;;;;10.50;63.00;;;;;;5076004;28;19911;-72
2022/01/05 05:55:15;;;;;;;;;;;10.40;63.00;;;;;;5075536;28;19904;-71
2022/01/05 05:57:42;;;;;;;;;;;10.40;63.10;;;;;;5076181;28;19955;-71
2022/01/05 06:00:08;;;;;;;;;;;10.40;63.20;;;;;;5075886;28;19909;-72
2022/01/05 06:02:33;;;;;;;;;;;10.30;63.20;;;;;;5057822;28;19909;-72
2022/01/05 06:04:59;;;;;;;;;;;10.30;63.30;;;;;;5075112;28;19931;-72
2022/01/05 06:07:25;;;;;;;;;;;10.30;63.20;;;;;;5058030;28;19904;-72
2022/01/05 06:09:50;;;;;;;;;;;10.30;63.30;;;;;;5075607;28;20046;-72
2022/01/05 06:12:16;;;;;;;;;;;10.30;63.50;;;;;;5076157;28;20300;-72
2022/01/05 06:14:41;;;;;;;;;;;10.30;63.60;;;;;;5090954;28;19908;-73
2022/01/05 06:17:07;;;;;;;;;;;10.30;63.70;;;;;;5075420;28;19925;-72
2022/01/05 06:19:33;;;;;;;;;;;10.30;63.80;;;;;;5075638;28;20026;-73
2022/01/05 06:21:58;;;;;;;;;;;10.20;63.80;;;;;;5075365;28;19911;-73
2022/01/05 06:24:24;;;;;;;;;;;10.10;64.20;;;;;;5057675;28;20216;-73
2022/01/05 06:26:52;;;;;;;;;;;10.10;64.50;;;;;;5075363;28;20283;-72
2022/01/05 06:29:18;;;;;;;;;;;10.00;64.40;;;;;;5057535;28;19905;-72
2022/01/05 06:31:44;;;;;;;;;;;10.00;64.40;;;;;;5057182;28;19915;-72
2022/01/05 06:34:10;;;;;;;;;;;9.90;64.40;;;;;;5075086;28;19904;-72
2022/01/05 06:36:35;;;;;;;;;;;9.90;64.60;;;;;;5074951;28;19946;-72
2022/01/05 06:39:02;;;;;;;;;;;9.80;64.70;;;;;;5074573;28;19919;-72
2022/01/05 06:41:28;;;;;;;;;;;9.80;64.70;;;;;;5074719;28;20007;-74
2022/01/05 06:43:53;;;;;;;;;;;9.70;64.90;;;;;;5074793;28;19983;-73
2022/01/05 06:46:19;;;;;;;;;;;9.70;65.20;;;;;;5090820;28;20255;-73
2022/01/05 06:48:45;;;;;;;;;;;9.60;65.40;;;;;;5074678;28;19904;-72
2022/01/05 06:51:10;;;;;;;;;;;9.60;66.00;;;;;;5074480;28;19904;-72
2022/01/05 06:53:37;;;;;;;;;;;9.60;66.20;;;;;;5074620;28;19909;-72
2022/01/05 06:56:03;;;;;;;;;;;9.50;66.20;;;;;;5074877;28;19905;-71
2022/01/05 06:58:29;;;;;;;;;;;9.50;66.10;;;;;;5056769;28;20352;-74
2022/01/05 07:00:55;;;;;;;;;;;9.50;65.90;;;;;;5073914;28;19909;-71
2022/01/05 07:03:21;;;;;;;;;;;9.50;66.00;;;;;;5074523;28;19908;-71
2022/01/05 07:05:47;;;;;;;;;;;9.40;65.90;;;;;;5074343;28;20268;-72
2022/01/05 07:08:13;;;;;;;;;;;9.40;66.10;;;;;;5074718;28;19904;-71
2022/01/05 07:10:39;;;;;;;;;;;9.40;66.20;;;;;;5074633;28;19912;-71
2022/01/05 07:13:05;;;;;;;;;;;9.40;66.40;;;;;;5074615;28;20252;-71
2022/01/05 07:15:30;;;;;;;;;;;9.40;66.50;;;;;;5074229;28;19919;-71
2022/01/05 07:17:56;;;;;;;;;;;9.40;66.50;;;;;;5089133;28;20356;-71
2022/01/05 07:20:22;;;;;;;;;;;9.40;66.50;;;;;;5074085;28;19911;-71
2022/01/05 07:22:47;;;;;;;;;;;9.40;66.50;;;;;;5074309;28;19904;-72
2022/01/05 07:25:13;;;;;;;;;;;9.30;66.50;;;;;;5074308;28;19941;-71
2022/01/05 07:27:39;;;;;;;;;;;9.30;66.50;;;;;;5074310;28;19919;-71
2022/01/05 07:30:05;;;;;;;;;;;9.30;66.70;;;;;;5088921;28;19908;-71
2022/01/05 07:32:31;;;;;;;;;;;9.30;66.90;;;;;;5056176;28;19904;-71
2022/01/05 07:34:57;;;;;;;;;;;9.30;67.00;;;;;;5056319;28;19915;-72
2022/01/05 07:37:22;;;;;;;;;;;9.30;67.10;;;;;;5074114;28;19913;-72
2022/01/05 07:39:48;;;;;;;;;;;9.30;67.10;;;;;;5056140;28;19915;-72
2022/01/05 07:42:14;;;;;;;;;;;9.30;67.00;;;;;;5077817;28;19916;-71
2022/01/05 07:44:40;;;;;;;;;;;9.30;67.10;;;;;;5094624;28;19904;-72
2022/01/05 07:47:06;;;;;;;;;;;9.30;67.10;;;;;;5094280;28;19911;-72
2022/01/05 07:49:32;;;;;;;;;;;9.30;67.00;;;;;;5064705;28;19932;-72
2022/01/05 07:51:57;;;;;;;;;;;9.30;67.00;;;;;;5073980;28;20356;-74
2022/01/05 07:54:23;;;;;;;;;;;9.30;67.00;;;;;;5074259;28;19912;-72
2022/01/05 07:56:49;;;;;;;;;;;9.30;67.10;;;;;;5073809;28;19912;-73
2022/01/05 07:59:14;;;;;;;;;;;9.30;67.20;;;;;;5073821;28;19904;-72
2022/01/05 08:01:40;;;;;;;;;;;9.30;67.10;;;;;;5073870;28;19904;-72
2022/01/05 08:04:06;;;;;;;;;;;9.30;67.20;;;;;;5073756;28;19905;-72
2022/01/05 08:06:31;;;;;;;;;;;9.30;67.30;;;;;;5073737;28;19911;-72
2022/01/05 08:08:57;;;;;;;;;;;9.30;67.50;;;;;;5073671;28;19908;-72
2022/01/05 08:11:22;;;;;;;;;;;9.30;67.60;;;;;;5073945;28;19911;-75
2022/01/05 08:13:48;;;;;;;;;;;9.40;67.80;;;;;;5073553;28;19904;-73
2022/01/05 08:16:14;;;;;;;;;;;9.40;67.80;;;;;;5073620;28;20266;-73
2022/01/05 08:18:40;;;;;;;;;;;9.40;67.70;;;;;;5073735;28;19916;-72
2022/01/05 08:21:06;;;;;;;;;;;9.40;67.60;;;;;;5073572;28;19905;-72
2022/01/05 08:23:31;;;;;;;;;;;9.40;67.60;;;;;;5073506;28;19911;-72
2022/01/05 08:25:57;;;;;;;;;;;9.40;67.60;;;;;;5055645;28;19915;-72
2022/01/05 08:28:23;;;;;;;;;;;9.40;68.40;;;;;;5055437;28;20274;-73
2022/01/05 08:30:48;;;;;;;;;;;9.40;67.60;;;;;;5055587;28;19905;-72
2022/01/05 08:33:15;;;;;;;;;;;9.40;67.70;;;;;;5073760;28;20315;-72
2022/01/05 08:35:41;;;;;;;;;;;9.40;67.60;;;;;;5073370;28;19904;-73
2022/01/05 08:38:06;;;;;;;;;;;9.40;67.70;;;;;;5073325;28;19990;-72
2022/01/05 08:40:33;;;;;;;;;;;9.40;67.80;;;;;;5073285;28;19904;-72
2022/01/05 08:42:59;;;;;;;;;;;9.50;67.90;;;;;;5073293;28;19905;-73
2022/01/05 08:45:24;;;;;;;;;;;9.50;67.80;;;;;;5054812;28;19980;-72
2022/01/05 08:47:51;;;;;;;;;;;9.50;67.60;;;;;;5073023;28;19905;-72
2022/01/05 08:50:17;;;;;;;;;;;9.50;67.80;;;;;;5072953;28;19912;-72
2022/01/05 08:52:43;;;;;;;;;;;9.50;67.90;;;;;;5073359;28;19958;-72
2022/01/05 08:55:09;;;;;;;;;;;9.50;68.00;;;;;;5073356;28;19904;-72
2022/01/05 08:57:35;;;;;;;;;;;9.50;68.00;;;;;;5072949;28;20050;-73
2022/01/05 09:00:01;;;;;;;;;;;9.50;68.00;;;;;;5073300;28;19970;-72
2022/01/05 09:02:28;;;;;;;;;;;9.60;68.00;;;;;;5073253;28;19909;-72
2022/01/05 09:04:53;;;;;;;;;;;9.60;68.00;;;;;;5073189;28;19993;-73
2022/01/05 09:07:19;;;;;;;;;;;9.60;67.90;;;;;;5072814;28;19962;-73
2022/01/05 09:09:45;;;;;;;;;;;9.60;68.00;;;;;;5072958;28;19911;-73
2022/01/05 09:12:11;;;;;;;;;;;9.70;68.00;;;;;;5055188;28;19987;-73
2022/01/05 09:14:37;;;;;;;;;;;9.70;68.10;;;;;;5073515;28;19919;-73
2022/01/05 09:17:03;;;;;;;;;;;9.70;68.20;;;;;;5054824;28;20359;-73
2022/01/05 09:19:29;;;;;;;;;;;9.70;68.00;;;;;;5073063;28;19947;-73
2022/01/05 09:21:55;;;;;;;;;;;9.80;68.10;;;;;;5073011;28;20414;-72
2022/01/05 09:24:20;;;;;;;;;;;9.80;68.00;;;;;;5054269;28;19908;-73
2022/01/05 09:26:46;;;;;;;;;;;9.80;67.90;;;;;;5075776;28;19905;-73
2022/01/05 09:29:12;;;;;;;;;;;9.80;67.70;;;;;;5076660;28;19915;-71
2022/01/05 09:31:37;;;;;;;;;;;9.90;67.70;;;;;;5095533;28;19904;-76
2022/01/05 09:34:03;;;;;;;;;;;9.90;67.70;;;;;;5077950;28;19904;-74
2022/01/05 09:36:34;;;;;;;;;;;9.90;67.70;;;;;;5112376;28;20379;-72
2022/01/05 09:41:56;;;;;;;;;;;9.90;67.70;;;;;;5096283;28;20469;-73
2022/01/05 09:44:25;;;;;;;;;;;9.90;67.60;;;;;;5096467;28;19951;-74
2022/01/05 09:47:00;;;;;;;;;;;10.00;67.70;;;;;;5084165;28;19904;-73
2022/01/05 09:49:34;;;;;;;;;;;10.00;67.80;;;;;;5058230;28;19904;-73
2022/01/05 09:52:04;;;;;;;;;;;10.00;67.90;;;;;;5075778;28;20352;-74
2022/01/05 09:54:30;;;;;;;;;;;10.10;67.90;;;;;;5076034;28;19912;-74
2022/01/05 09:56:56;;;;;;;;;;;10.10;67.90;;;;;;5076098;28;19908;-73
2022/01/05 09:59:22;;;;;;;;;;;10.10;68.00;;;;;;5076022;28;19954;-73
2022/01/05 10:01:48;;;;;;;;;;;10.10;67.70;;;;;;5057378;28;19905;-73
2022/01/05 10:04:14;;;;;;;;;;;10.10;67.60;;;;;;5075609;28;19905;-74
2022/01/05 10:06:40;;;;;;;;;;;10.10;67.50;;;;;;5075581;28;19999;-74
2022/01/05 10:09:06;;;;;;;;;;;10.20;67.70;;;;;;5075603;28;19905;-73
2022/01/05 10:11:32;;;;;;;;;;;10.20;67.60;;;;;;5075795;28;19983;-73
2022/01/05 10:13:57;;;;;;;;;;;10.20;67.50;;;;;;5057816;28;19999;-73
2022/01/05 10:16:24;;;;;;;;;;;10.20;67.50;;;;;;5075488;28;19928;-79
2022/01/05 10:18:49;;;;;;;;;;;10.20;67.50;;;;;;5075731;28;19985;-73
2022/01/05 10:21:15;;;;;;;;;;;10.20;67.30;;;;;;5075624;28;19909;-74
2022/01/05 10:23:43;;;;;;;;;;;10.20;67.30;;;;;;5075897;28;19904;-75
2022/01/05 10:26:22;;;;;;;;;;;10.20;67.50;;;;;;5075164;28;19958;-74
2022/01/05 10:28:48;;;;;;;;;;;10.20;67.50;;;;;;5075425;28;19919;-73
2022/01/05 10:31:15;;;;;;;;;;;10.30;67.70;;;;;;5057373;28;20003;-74
2022/01/05 10:33:40;;;;;;;;;;;10.30;67.70;;;;;;5075239;28;20251;-73
2022/01/05 10:36:06;;;;;;;;;;;10.30;67.60;;;;;;5075311;28;20004;-74
2022/01/05 10:38:32;;;;;;;;;;;10.30;67.50;;;;;;5090812;28;19914;-73
2022/01/05 10:40:57;;;;;;;;;;;10.40;67.60;;;;;;5074912;28;20330;-73
2022/01/05 10:43:23;;;;;;;;;;;10.40;67.40;;;;;;5057012;28;19931;-74
2022/01/05 10:45:53;;;;;;;;;;;10.40;67.40;;;;;;5057127;28;19904;-73
2022/01/05 10:48:19;;;;;;;;;;;10.40;67.40;;;;;;5075080;28;20252;-73
2022/01/05 10:50:46;;;;;;;;;;;10.40;67.40;;;;;;5075152;28;20026;-74
2022/01/05 10:53:15;;;;;;;;;;;10.40;67.40;;;;;;5074684;28;19912;-74
2022/01/05 10:55:43;;;;;;;;;;;10.40;67.50;;;;;;5075258;28;19911;-76
2022/01/05 10:58:11;;;;;;;;;;;10.40;67.40;;;;;;5056970;28;19909;-73
2022/01/05 11:00:55;;;;;;;;;;;10.50;67.40;;;;;;5056738;28;19915;-74
2022/01/05 11:03:23;;;;;;;;;;;10.50;67.30;;;;;;5074828;28;19904;-73
2022/01/05 11:05:59;;;;;;;;;;;10.50;67.30;;;;;;5074505;28;20344;-73
2022/01/05 11:08:25;;;;;;;;;;;10.50;67.30;;;;;;5056853;28;19955;-73
2022/01/05 11:10:50;;;;;;;;;;;10.50;67.20;;;;;;5074495;28;20005;-73
2022/01/05 11:13:16;;;;;;;;;;;10.50;67.10;;;;;;5090142;28;19904;-73
2022/01/05 11:15:41;;;;;;;;;;;10.50;67.20;;;;;;5074501;28;19927;-73
2022/01/05 11:18:15;;;;;;;;;;;10.60;67.30;;;;;;5058921;28;19924;-74
2022/01/05 11:20:49;;;;;;;;;;;10.60;67.40;;;;;;5036532;28;19960;-74
2022/01/05 11:23:14;;;;;;;;;;;10.60;67.20;;;;;;5036439;28;19905;-74
2022/01/05 11:25:42;;;;;;;;;;;10.70;67.40;;;;;;5053890;28;19959;-74
2022/01/05 11:28:07;;;;;;;;;;;10.70;67.30;;;;;;5036050;28;20264;-73
2022/01/05 11:30:34;;;;;;;;;;;10.70;67.30;;;;;;5036225;28;19909;-73
2022/01/05 11:32:59;;;;;;;;;;;10.80;67.20;;;;;;5069422;28;19909;-73
2022/01/05 11:35:25;;;;;;;;;;;10.80;67.10;;;;;;5054070;28;19904;-74
2022/01/05 11:37:51;;;;;;;;;;;10.80;67.00;;;;;;5035817;28;19952;-74
2022/01/05 11:40:17;;;;;;;;;;;10.80;66.80;;;;;;5068903;28;19959;-74
2022/01/05 11:42:45;;;;;;;;;;;10.80;66.80;;;;;;5053105;28;20328;-74
2022/01/05 11:45:11;;;;;;;;;;;10.80;66.70;;;;;;5053472;28;19912;-75
2022/01/05 11:47:38;;;;;;;;;;;10.80;66.70;;;;;;5053154;28;19908;-74
2022/01/05 11:50:12;;;;;;;;;;;10.80;66.50;;;;;;5053540;28;19912;-74
2022/01/05 11:52:56;;;;;;;;;;;10.80;66.40;;;;;;5053655;28;19905;-74
2022/01/05 11:55:22;;;;;;;;;;;10.80;66.40;;;;;;5053365;28;19909;-74
2022/01/05 11:58:07;;;;;;;;;;;10.80;66.50;;;;;;5035400;28;19962;-74
2022/01/05 12:00:32;;;;;;;;;;;10.70;66.50;;;;;;5053845;28;19905;-74
2022/01/05 12:02:58;;;;;;;;;;;10.70;66.70;;;;;;5035649;28;19959;-74
2022/01/05 12:05:24;;;;;;;;;;;10.60;66.40;;;;;;5053696;28;19952;-74
2022/01/05 12:07:51;;;;;;;;;;;10.60;66.30;;;;;;5035687;28;19944;-74
2022/01/05 12:10:24;;;;;;;;;;;10.50;66.40;;;;;;5035916;28;19905;-74
2022/01/05 12:13:01;;;;;;;;;;;10.50;66.80;;;;;;5035714;28;19951;-74
2022/01/05 12:15:41;;;;;;;;;;;10.50;67.10;;;;;;5036011;28;20296;-74
2022/01/05 12:18:07;;;;;;;;;;;10.50;66.70;;;;;;5035226;28;20028;-74
2022/01/05 12:20:34;;;;;;;;;;;10.40;66.60;;;;;;5035615;28;19952;-74
2022/01/05 12:23:18;;;;;;;;;;;10.50;66.70;;;;;;5053418;28;20305;-74
2022/01/05 12:26:02;;;;;;;;;;;10.40;66.60;;;;;;5053057;28;20411;-74
2022/01/05 12:28:29;;;;;;;;;;;10.50;66.80;;;;;;5053455;28;19904;-74
2022/01/05 12:30:55;;;;;;;;;;;10.50;66.80;;;;;;5053037;28;20349;-74
2022/01/05 12:33:20;;;;;;;;;;;10.50;66.50;;;;;;5053041;28;19905;-74
2022/01/05 12:35:48;;;;;;;;;;;10.50;66.30;;;;;;5053173;28;20367;-74
2022/01/05 12:38:30;;;;;;;;;;;10.40;65.70;;;;;;5053332;28;20343;-75
2022/01/05 12:40:56;;;;;;;;;;;10.40;65.10;;;;;;5035482;28;20304;-74
2022/01/05 12:43:21;;;;;;;;;;;10.30;64.60;;;;;;5052912;28;19956;-74
2022/01/05 12:45:50;;;;;;;;;;;10.30;64.20;;;;;;5053246;28;19915;-74
2022/01/05 12:48:35;;;;;;;;;;;10.20;64.20;;;;;;5053354;28;19905;-74
2022/01/05 12:51:17;;;;;;;;;;;10.20;64.30;;;;;;5035651;28;19905;-74
2022/01/05 12:54:00;;;;;;;;;;;10.20;64.30;;;;;;5068780;28;19905;-74
2022/01/05 12:56:41;;;;;;;;;;;10.20;64.00;;;;;;5035121;28;19951;-74
2022/01/05 12:59:08;;;;;;;;;;;10.10;63.20;;;;;;5052826;28;19913;-74
2022/01/05 13:01:33;;;;;;;;;;;10.00;63.20;;;;;;5057013;28;19956;-74
2022/01/05 13:04:00;;;;;;;;;;;10.00;63.10;;;;;;5038950;28;19908;-75
2022/01/05 13:06:30;;;;;;;;;;;9.90;62.80;;;;;;5056828;28;19904;-76
2022/01/05 13:09:00;;;;;;;;;;;10.00;63.20;;;;;;5039184;28;19940;-74
2022/01/05 13:11:42;;;;;;;;;;;9.90;63.20;;;;;;5072282;28;20412;-75
2022/01/05 13:14:21;;;;;;;;;;;9.90;63.10;;;;;;5056808;28;20247;-73
2022/01/05 13:16:47;;;;;;;;;;;9.90;63.00;;;;;;5042526;28;20268;-73
2022/01/05 13:19:27;;;;;;;;;;;9.90;62.60;;;;;;5076569;28;19912;-74
2022/01/05 13:21:53;;;;;;;;;;;9.80;62.30;;;;;;5076480;28;19966;-74
2022/01/05 13:24:20;;;;;;;;;;;9.80;62.30;;;;;;5058604;28;19944;-74
2022/01/05 13:26:58;;;;;;;;;;;9.80;62.10;;;;;;5076417;28;20423;-74
2022/01/05 13:29:28;;;;;;;;;;;9.80;62.20;;;;;;5092278;28;19956;-75
2022/01/05 13:31:54;;;;;;;;;;;9.80;62.10;;;;;;5058612;28;20375;-74
2022/01/05 13:34:28;;;;;;;;;;;9.70;62.20;;;;;;5076389;28;20316;-74
2022/01/05 13:36:53;;;;;;;;;;;9.70;62.90;;;;;;5058610;28;19904;-73
2022/01/05 13:39:39;;;;;;;;;;;9.70;61.90;;;;;;5076388;28;19912;-73
2022/01/05 13:42:05;;;;;;;;;;;9.60;61.90;;;;;;5058301;28;19958;-74
2022/01/05 13:44:31;;;;;;;;;;;9.50;61.40;;;;;;5076212;28;19912;-74
2022/01/05 13:46:57;;;;;;;;;;;9.50;61.30;;;;;;5075873;28;19908;-74
2022/01/05 13:49:24;;;;;;;;;;;9.40;60.90;;;;;;5058066;28;20005;-74
2022/01/05 13:52:09;;;;;;;;;;;9.40;61.10;;;;;;5057964;28;19905;-74
2022/01/05 13:54:36;;;;;;;;;;;9.30;60.60;;;;;;5091643;28;19912;-74
2022/01/05 13:57:02;;;;;;;;;;;9.20;60.90;;;;;;5057883;28;19904;-74
2022/01/05 13:59:41;;;;;;;;;;;9.20;61.10;;;;;;5076047;28;20355;-74
2022/01/05 14:02:09;;;;;;;;;;;9.20;60.90;;;;;;5075848;28;19905;-74
2022/01/05 14:04:51;;;;;;;;;;;9.20;60.80;;;;;;5091382;28;19913;-74
2022/01/05 14:07:18;;;;;;;;;;;9.10;60.60;;;;;;5075935;28;19912;-75
2022/01/05 14:09:45;;;;;;;;;;;9.10;60.20;;;;;;5075629;28;19904;-74
2022/01/05 14:12:29;;;;;;;;;;;9.00;60.60;;;;;;5075448;28;19904;-74
2022/01/05 14:14:58;;;;;;;;;;;9.00;60.10;;;;;;5076037;28;19911;-73
2022/01/05 14:17:24;;;;;;;;;;;9.00;60.30;;;;;;5057179;28;20014;-74
2022/01/05 14:19:50;;;;;;;;;;;8.90;60.60;;;;;;5075452;28;19905;-74
2022/01/05 14:22:19;;;;;;;;;;;8.90;60.50;;;;;;5075679;28;19911;-74